createdAt,value
2019-02-19T00:02:07.196Z,100323.33
2019-02-19T00:04:35.659Z,100322.11
2019-02-19T00:07:04.067Z,100322.16
2019-02-19T00:09:32.537Z,100310.75
2019-02-19T00:12:00.936Z,100305.72
2019-02-19T00:14:29.424Z,100310.81
2019-02-19T00:16:57.875Z,100313.81
2019-02-19T00:19:26.358Z,100315.09
2019-02-19T00:21:54.778Z,100313.81
2019-02-19T00:24:23.302Z,100310.88
2019-02-19T00:26:51.716Z,100308.37
2019-02-19T00:29:20.124Z,100310.09
2019-02-19T00:31:49.239Z,100300.34
2019-02-19T00:34:17.659Z,100305.91
2019-02-19T00:36:46.080Z,100307.12
2019-02-19T00:39:14.537Z,100297.81
2019-02-19T00:41:42.981Z,100306.73
2019-02-19T00:44:11.404Z,100306.00
2019-02-19T00:46:39.844Z,100311.92
2019-02-19T00:49:08.508Z,100307.31
2019-02-19T00:51:36.944Z,100312.02
2019-02-19T00:54:05.392Z,100306.96
2019-02-19T00:56:33.868Z,100300.63
2019-02-19T00:59:02.273Z,100309.97
2019-02-19T01:01:30.722Z,100307.50
2019-02-19T01:03:59.156Z,100301.58
2019-02-19T01:06:28.683Z,100304.61
2019-02-19T01:08:57.195Z,100305.50
2019-02-19T01:11:25.597Z,100305.14
2019-02-19T01:13:54.894Z,100311.95
2019-02-19T01:16:23.323Z,100310.28
2019-02-19T01:18:51.739Z,100301.77
2019-02-19T01:21:20.185Z,100302.64
2019-02-19T01:23:48.604Z,100306.91
2019-02-19T01:26:17.020Z,100304.00
2019-02-19T01:28:45.482Z,100305.27
2019-02-19T01:31:13.983Z,100305.31
2019-02-19T01:33:42.382Z,100310.41
2019-02-19T01:36:10.836Z,100303.24
2019-02-19T01:38:39.245Z,100299.03
2019-02-19T01:41:07.692Z,100294.41
2019-02-19T01:43:36.118Z,100295.20
2019-02-19T01:46:04.663Z,100297.35
2019-02-19T01:48:33.183Z,100292.23
2019-02-19T01:51:01.641Z,100292.23
2019-02-19T01:53:30.021Z,100294.37
2019-02-19T01:55:58.785Z,100296.92
2019-02-19T01:58:27.202Z,100295.24
2019-02-19T02:00:55.636Z,100294.80
2019-02-19T02:03:24.090Z,100294.41
2019-02-19T02:05:52.498Z,100288.48
2019-02-19T02:08:20.954Z,100299.13
2019-02-19T02:10:49.381Z,100287.24
2019-02-19T02:13:17.790Z,100288.52
2019-02-19T02:15:46.214Z,100283.45
2019-02-19T02:18:14.646Z,100283.48
2019-02-19T02:20:43.062Z,100284.36
2019-02-19T02:23:11.570Z,100282.69
2019-02-19T02:25:39.985Z,100284.39
2019-02-19T02:28:08.430Z,100286.10
2019-02-19T02:30:36.861Z,100282.28
2019-02-19T02:33:05.324Z,100280.17
2019-02-19T02:35:33.748Z,100283.15
2019-02-19T02:38:02.193Z,100278.47
2019-02-19T02:40:30.714Z,100279.77
2019-02-19T02:42:59.162Z,100278.49
2019-02-19T02:45:27.552Z,100277.22
2019-02-19T02:47:56.010Z,100274.25
2019-02-19T02:50:24.441Z,100278.09
2019-02-19T02:52:52.870Z,100285.29
2019-02-19T02:55:21.302Z,100285.73
2019-02-19T02:57:49.716Z,100276.81
2019-02-19T03:00:18.235Z,100284.05
2019-02-19T03:02:46.656Z,100268.81
2019-02-19T03:05:15.081Z,100279.85
2019-02-19T03:07:45.159Z,100270.95
2019-02-19T03:10:13.642Z,100268.84
2019-02-19T03:12:42.078Z,100266.73
2019-02-19T03:15:11.158Z,100262.50
2019-02-19T03:17:39.596Z,100267.19
2019-02-19T03:20:08.587Z,100262.53
2019-02-19T03:22:37.024Z,100265.94
2019-02-19T03:25:06.171Z,100262.07
2019-02-19T03:27:34.600Z,100255.28
2019-02-19T03:30:03.482Z,100262.50
2019-02-19T03:32:31.912Z,100263.32
2019-02-19T03:35:00.482Z,100263.28
2019-02-19T03:37:28.866Z,100268.41
2019-02-19T03:39:57.326Z,100269.62
2019-02-19T03:42:25.849Z,100271.33
2019-02-19T03:44:54.274Z,100271.76
2019-02-19T03:47:22.693Z,100267.51
2019-02-19T03:49:51.125Z,100272.19
2019-02-19T03:52:19.530Z,100270.52
2019-02-19T03:54:48.033Z,100274.30
2019-02-19T03:57:16.511Z,100266.70
2019-02-19T03:59:44.939Z,100277.71
2019-02-19T04:02:13.498Z,100271.81
2019-02-19T04:04:41.925Z,100272.68
2019-02-19T04:07:10.374Z,100276.09
2019-02-19T04:09:38.784Z,100273.55
2019-02-19T04:12:07.351Z,100276.52
2019-02-19T04:14:35.748Z,100273.56
2019-02-19T04:17:04.316Z,100268.00
2019-02-19T04:19:33.365Z,100273.92
2019-02-19T04:22:01.790Z,100273.08
2019-02-19T04:24:30.205Z,100274.77
2019-02-19T04:26:58.653Z,100277.74
2019-02-19T04:29:27.068Z,100270.52
2019-02-19T04:31:55.553Z,100264.59
2019-02-19T04:34:24.038Z,100265.02
2019-02-19T04:36:52.473Z,100270.11
2019-02-19T04:39:20.962Z,100270.95
2019-02-19T04:41:49.410Z,100270.98
2019-02-19T04:44:17.846Z,100265.89
2019-02-19T04:46:46.322Z,100265.05
2019-02-19T04:49:14.749Z,100264.61
2019-02-19T04:51:43.210Z,100261.67
2019-02-19T04:54:11.690Z,100267.16
2019-02-19T04:56:40.090Z,100259.95
2019-02-19T04:59:08.540Z,100272.67
2019-02-19T05:01:36.970Z,100269.30
2019-02-19T05:04:05.399Z,100266.34
2019-02-19T05:06:33.829Z,100272.22
2019-02-19T05:09:02.353Z,100270.54
2019-02-19T05:11:30.761Z,100270.11
2019-02-19T05:13:59.212Z,100279.04
2019-02-19T05:16:27.644Z,100285.42
2019-02-19T05:18:56.148Z,100288.34
2019-02-19T05:21:24.583Z,100290.46
2019-02-19T05:23:53.047Z,100296.82
2019-02-19T05:26:21.567Z,100297.69
2019-02-19T05:28:49.984Z,100303.59
2019-02-19T05:31:18.440Z,100300.64
2019-02-19T05:33:46.845Z,100303.59
2019-02-19T05:36:15.288Z,100298.91
2019-02-19T05:38:43.708Z,100304.00
2019-02-19T05:41:12.169Z,100305.70
2019-02-19T05:43:40.671Z,100308.67
2019-02-19T05:46:09.083Z,100309.92
2019-02-19T05:48:37.528Z,100312.47
2019-02-19T05:51:05.981Z,100314.55
2019-02-19T05:53:34.390Z,100306.92
2019-02-19T05:56:02.868Z,100309.44
2019-02-19T05:58:31.322Z,100308.60
2019-02-19T06:00:59.824Z,100309.00
2019-02-19T06:03:29.285Z,100308.16
2019-02-19T06:05:57.661Z,100318.31
2019-02-19T06:08:26.133Z,100313.20
2019-02-19T06:10:54.542Z,100319.56
2019-02-19T06:13:22.967Z,100323.38
2019-02-19T06:15:51.495Z,100329.30
2019-02-19T06:18:19.909Z,100337.75
2019-02-19T06:20:48.320Z,100346.66
2019-02-19T06:23:16.782Z,100347.07
2019-02-19T06:25:45.212Z,100345.36
2019-02-19T06:28:13.653Z,100344.49
2019-02-19T06:30:42.082Z,100347.88
2019-02-19T06:33:10.600Z,100347.00
2019-02-19T06:35:39.025Z,100349.12
2019-02-19T06:38:07.444Z,100355.48
2019-02-19T06:40:35.882Z,100357.16
2019-02-19T06:43:04.419Z,100357.16
2019-02-19T06:45:32.871Z,100359.27
2019-02-19T06:48:01.303Z,100360.95
2019-02-19T06:50:29.723Z,100355.42
2019-02-19T06:52:58.165Z,100360.55
2019-02-19T06:55:26.608Z,100365.20
2019-02-19T06:57:55.045Z,100367.34
2019-02-19T07:00:23.598Z,100369.92
2019-02-19T07:02:53.721Z,100367.34
2019-02-19T07:05:23.775Z,100375.02
2019-02-19T07:07:52.265Z,100385.20
2019-02-19T07:10:20.697Z,100380.95
2019-02-19T07:12:49.174Z,100381.38
2019-02-19T07:15:17.870Z,100390.73
2019-02-19T07:17:46.327Z,100394.55
2019-02-19T07:20:14.806Z,100398.36
2019-02-19T07:22:43.250Z,100403.86
2019-02-19T07:25:12.536Z,100407.28
2019-02-19T07:27:40.978Z,100404.30
2019-02-19T07:30:11.583Z,100405.98
2019-02-19T07:32:40.016Z,100403.86
2019-02-19T07:35:10.011Z,100408.12
2019-02-19T07:37:38.437Z,100418.28
2019-02-19T07:40:11.823Z,100418.30
2019-02-19T07:42:40.263Z,100422.94
2019-02-19T07:45:11.074Z,100421.63
2019-02-19T07:47:39.534Z,100419.09
2019-02-19T07:50:10.370Z,100426.73
2019-02-19T07:52:38.855Z,100424.56
2019-02-19T07:55:09.911Z,100429.22
2019-02-19T07:57:38.353Z,100422.81
2019-02-19T08:00:11.891Z,100429.59
2019-02-19T08:02:40.388Z,100435.09
2019-02-19T08:05:09.647Z,100437.60
2019-02-19T08:07:38.153Z,100438.47
2019-02-19T08:10:11.840Z,100435.09
2019-02-19T08:12:40.315Z,100435.48
2019-02-19T08:15:12.735Z,100436.36
2019-02-19T08:17:41.165Z,100443.53
2019-02-19T08:20:15.711Z,100438.44
2019-02-19T08:22:40.520Z,100436.73
2019-02-19T08:25:09.074Z,100442.23
2019-02-19T08:27:37.576Z,100442.20
2019-02-19T08:30:08.848Z,100443.47
2019-02-19T08:32:37.268Z,100447.29
2019-02-19T08:35:08.309Z,100448.56
2019-02-19T08:37:36.764Z,100453.63
2019-02-19T08:40:07.690Z,100452.75
2019-02-19T08:42:36.150Z,100456.14
2019-02-19T08:45:05.995Z,100451.40
2019-02-19T08:47:42.295Z,100459.84
2019-02-19T08:50:06.768Z,100464.50
2019-02-19T08:52:35.219Z,100459.41
2019-02-19T08:55:04.090Z,100463.14
2019-02-19T08:57:32.507Z,100468.14
2019-02-19T09:00:00.963Z,100469.33
2019-02-19T09:02:29.398Z,100466.63
2019-02-19T09:04:57.837Z,100469.95
2019-02-19T09:07:26.284Z,100473.73
2019-02-19T09:09:54.765Z,100471.95
2019-02-19T09:12:23.445Z,100468.89
2019-02-19T09:14:51.876Z,100467.11
2019-02-19T09:17:23.179Z,100470.43
2019-02-19T09:19:51.656Z,100477.32
2019-02-19T09:22:20.081Z,100483.70
2019-02-19T09:24:48.536Z,100482.39
2019-02-19T09:27:17.005Z,100487.16
2019-02-19T09:29:45.427Z,100482.84
2019-02-19T09:32:13.871Z,100486.65
2019-02-19T09:34:42.383Z,100487.98
2019-02-19T09:37:10.803Z,100476.56
2019-02-19T09:39:39.257Z,100479.95
2019-02-19T09:42:07.721Z,100477.66
2019-02-19T09:44:36.130Z,100486.53
2019-02-19T09:47:04.595Z,100485.39
2019-02-19T09:49:33.038Z,100482.00
2019-02-19T09:52:02.298Z,100493.56
2019-02-19T09:54:30.716Z,100490.88
2019-02-19T09:57:00.667Z,100490.05
2019-02-19T09:59:29.135Z,100497.02
2019-02-19T10:01:57.577Z,100500.08
2019-02-19T10:04:26.055Z,100497.00
2019-02-19T10:06:54.508Z,100496.95
2019-02-19T10:09:22.951Z,100494.48
2019-02-19T10:11:51.400Z,100504.34
2019-02-19T10:14:19.867Z,100498.11
2019-02-19T10:16:48.331Z,100497.70
2019-02-19T10:19:16.751Z,100498.05
2019-02-19T10:21:45.753Z,100502.01
2019-02-19T10:24:14.540Z,100491.27
2019-02-19T10:26:42.963Z,100511.36
2019-02-19T10:29:11.421Z,100504.81
2019-02-19T10:31:39.898Z,100512.69
2019-02-19T10:34:08.444Z,100515.65
2019-02-19T10:36:38.572Z,100512.06
2019-02-19T10:39:08.820Z,100522.48
2019-02-19T10:41:37.291Z,100507.58
2019-02-19T10:44:05.709Z,100509.19
2019-02-19T10:46:34.186Z,100506.61
2019-02-19T10:49:02.614Z,100509.41
2019-02-19T10:51:31.032Z,100498.58
2019-02-19T10:53:59.513Z,100499.41
2019-02-19T10:56:27.935Z,100500.81
2019-02-19T10:58:56.382Z,100503.52
2019-02-19T11:01:24.934Z,100501.09
2019-02-19T11:03:53.382Z,100496.23
2019-02-19T11:06:21.815Z,100490.91
2019-02-19T11:08:50.259Z,100495.02
2019-02-19T11:11:18.777Z,100486.45
2019-02-19T11:13:47.213Z,100489.55
2019-02-19T11:16:15.673Z,100498.47
2019-02-19T11:18:44.103Z,100494.50
2019-02-19T11:21:19.337Z,100491.21
2019-02-19T11:23:42.833Z,100497.87
2019-02-19T11:26:16.276Z,100491.81
2019-02-19T11:28:44.966Z,100493.93
2019-02-19T11:31:13.404Z,100484.27
2019-02-19T11:33:46.667Z,100491.87
2019-02-19T11:36:15.269Z,100483.35
2019-02-19T11:38:43.709Z,100481.06
2019-02-19T11:41:12.174Z,100486.54
2019-02-19T11:43:40.668Z,100492.66
2019-02-19T11:46:09.099Z,100489.72
2019-02-19T11:48:37.601Z,100498.28
2019-02-19T11:51:06.067Z,100503.58
2019-02-19T11:53:34.558Z,100504.23
2019-02-19T11:56:03.000Z,100502.83
2019-02-19T11:58:31.496Z,100505.39
2019-02-19T12:01:00.748Z,100494.61
2019-02-19T12:03:29.261Z,100496.83
2019-02-19T12:05:57.799Z,100498.53
2019-02-19T12:08:26.222Z,100493.60
2019-02-19T12:10:56.765Z,100498.55
2019-02-19T12:13:25.252Z,100493.12
2019-02-19T12:15:53.781Z,100490.94
2019-02-19T12:18:22.283Z,100495.88
2019-02-19T12:20:50.728Z,100483.81
2019-02-19T12:23:19.168Z,100492.83
2019-02-19T12:25:47.612Z,100488.13
2019-02-19T12:28:17.660Z,100489.03
2019-02-19T12:30:49.057Z,100492.00
2019-02-19T12:33:17.459Z,100485.45
2019-02-19T12:35:45.967Z,100485.80
2019-02-19T12:38:14.411Z,100487.94
2019-02-19T12:40:42.937Z,100494.14
2019-02-19T12:43:11.532Z,100484.09
2019-02-19T12:45:40.024Z,100496.99
2019-02-19T12:48:08.464Z,100501.53
2019-02-19T12:50:36.913Z,100497.29
2019-02-19T12:53:05.362Z,100499.75
2019-02-19T12:55:33.924Z,100494.86
2019-02-19T12:58:02.324Z,100494.81
2019-02-19T13:00:30.911Z,100499.26
2019-02-19T13:02:59.410Z,100492.20
2019-02-19T13:05:27.872Z,100502.10
2019-02-19T13:07:56.286Z,100503.33
2019-02-19T13:10:24.787Z,100507.64
2019-02-19T13:12:53.235Z,100500.89
2019-02-19T13:15:22.626Z,100493.25
2019-02-19T13:17:51.187Z,100501.27
2019-02-19T13:20:19.773Z,100503.01
2019-02-19T13:22:48.364Z,100505.86
2019-02-19T13:25:16.838Z,100498.56
2019-02-19T13:27:45.251Z,100503.37
2019-02-19T13:30:21.384Z,100511.58
2019-02-19T13:32:49.836Z,100500.52
2019-02-19T13:35:18.344Z,100515.20
2019-02-19T13:37:46.876Z,100515.25
2019-02-19T13:40:19.646Z,100513.17
2019-02-19T13:42:48.209Z,100508.94
2019-02-19T13:45:16.790Z,100508.41
2019-02-19T13:47:45.307Z,100514.82
2019-02-19T13:50:22.963Z,100504.64
2019-02-19T13:52:56.062Z,100511.09
2019-02-19T13:55:26.140Z,100511.69
2019-02-19T13:58:04.266Z,100509.97
2019-02-19T14:00:34.493Z,100510.75
2019-02-19T14:03:03.328Z,100503.14
2019-02-19T14:05:31.792Z,100500.97
2019-02-19T14:08:00.268Z,100498.84
2019-02-19T14:10:28.704Z,100506.08
2019-02-19T14:12:57.162Z,100509.06
2019-02-19T14:15:30.012Z,100504.35
2019-02-19T14:17:59.151Z,100509.52
2019-02-19T14:20:29.213Z,100518.48
2019-02-19T14:23:02.018Z,100511.69
2019-02-19T14:25:35.038Z,100515.08
2019-02-19T14:28:21.647Z,100512.59
2019-02-19T14:31:03.691Z,100518.92
2019-02-19T14:33:33.792Z,100511.24
2019-02-19T14:36:20.454Z,100515.09
2019-02-19T14:39:02.452Z,100518.01
2019-02-19T14:41:48.397Z,100517.57
2019-02-19T14:44:33.814Z,100517.19
2019-02-19T14:47:03.907Z,100518.03
2019-02-19T14:49:50.459Z,100518.46
2019-02-19T14:52:29.459Z,100522.80
2019-02-19T14:54:59.523Z,100522.77
2019-02-19T14:57:45.909Z,100521.99
2019-02-19T15:00:18.683Z,100514.77
2019-02-19T15:02:51.716Z,100509.26
2019-02-19T15:05:24.892Z,100509.34
2019-02-19T15:07:57.913Z,100514.39
2019-02-19T15:10:45.789Z,100508.45
2019-02-19T15:13:16.701Z,100506.34
2019-02-19T15:15:52.976Z,100508.13
2019-02-19T15:18:34.953Z,100512.34
2019-02-19T15:21:20.916Z,100510.63
2019-02-19T15:23:53.451Z,100508.56
2019-02-19T15:26:23.507Z,100509.80
2019-02-19T15:29:05.654Z,100511.91
2019-02-19T15:31:41.704Z,100504.75
2019-02-19T15:34:28.196Z,100505.63
2019-02-19T15:36:58.385Z,100506.84
2019-02-19T15:39:30.905Z,100511.97
2019-02-19T15:42:06.765Z,100512.85
2019-02-19T15:44:42.744Z,100517.06
2019-02-19T15:47:21.586Z,100514.96
2019-02-19T15:49:51.647Z,100512.84
2019-02-19T15:52:27.941Z,100506.46
2019-02-19T15:54:58.008Z,100506.86
2019-02-19T15:57:33.651Z,100510.73
2019-02-19T16:00:03.964Z,100507.30
2019-02-19T16:02:36.806Z,100505.63
2019-02-19T16:05:10.754Z,100513.28
2019-02-19T16:07:44.096Z,100519.70
2019-02-19T16:10:26.178Z,100507.75
2019-02-19T16:13:11.580Z,100517.19
2019-02-19T16:16:06.909Z,100512.13
2019-02-19T16:18:39.846Z,100511.76
2019-02-19T16:21:15.546Z,100512.25
2019-02-19T16:23:57.672Z,100518.64
2019-02-19T16:26:46.869Z,100513.59
2019-02-19T16:29:22.801Z,100527.68
2019-02-19T16:32:01.497Z,100526.52
2019-02-19T16:34:34.791Z,100528.63
2019-02-19T16:37:19.861Z,100528.23
2019-02-19T16:39:55.663Z,100539.27
2019-02-19T16:42:41.640Z,100541.42
2019-02-19T16:45:26.941Z,100533.33
2019-02-19T16:48:02.472Z,100538.04
2019-02-19T16:50:52.110Z,100535.48
2019-02-19T16:53:22.441Z,100540.59
2019-02-19T16:55:52.493Z,100540.59
2019-02-19T16:58:28.316Z,100537.65
2019-02-19T17:00:58.389Z,100542.34
2019-02-19T17:03:31.464Z,100542.31
2019-02-19T17:06:01.678Z,100544.08
2019-02-19T17:08:40.511Z,100535.14
2019-02-19T17:11:13.309Z,100533.03
2019-02-19T17:13:57.830Z,100549.92
2019-02-19T17:16:36.776Z,100546.14
2019-02-19T17:19:09.831Z,100555.91
2019-02-19T17:21:58.714Z,100561.45
2019-02-19T17:24:28.826Z,100557.19
2019-02-19T17:26:59.266Z,100563.61
2019-02-19T17:29:35.233Z,100552.95
2019-02-19T17:32:20.461Z,100565.28
2019-02-19T17:34:59.579Z,100567.83
2019-02-19T17:37:29.746Z,100572.94
2019-02-19T17:39:59.829Z,100585.26
2019-02-19T17:42:29.974Z,100590.38
2019-02-19T17:45:00.036Z,100590.84
2019-02-19T17:47:38.595Z,100595.95
2019-02-19T17:50:27.449Z,100606.16
2019-02-19T17:53:00.330Z,100604.04
2019-02-19T17:55:42.295Z,100601.89
2019-02-19T17:58:18.106Z,100610.91
2019-02-19T18:00:51.252Z,100610.50
2019-02-19T18:03:33.255Z,100611.34
2019-02-19T18:06:15.267Z,100610.97
2019-02-19T18:08:45.409Z,100613.56
2019-02-19T18:11:24.399Z,100613.16
2019-02-19T18:13:57.105Z,100614.44
2019-02-19T18:16:43.494Z,100611.10
2019-02-19T18:19:11.923Z,100617.51
2019-02-19T18:21:41.866Z,100625.99
2019-02-19T18:24:10.563Z,100626.87
2019-02-19T18:26:39.008Z,100630.74
2019-02-19T18:29:07.464Z,100642.25
2019-02-19T18:31:35.922Z,100675.38
2019-02-19T18:34:04.364Z,100674.63
2019-02-19T18:36:32.841Z,100673.38
2019-02-19T18:39:01.367Z,100671.25
2019-02-19T18:41:29.830Z,100651.73
2019-02-19T18:43:58.239Z,100666.16
2019-02-19T18:46:26.670Z,100661.47
2019-02-19T18:48:55.191Z,100662.27
2019-02-19T18:51:24.167Z,100660.13
2019-02-19T18:53:52.648Z,100658.03
2019-02-19T18:56:21.140Z,100654.20
2019-02-19T18:58:49.603Z,100658.02
2019-02-19T19:01:18.092Z,100658.46
2019-02-19T19:03:46.568Z,100664.37
2019-02-19T19:06:15.022Z,100665.64
2019-02-19T19:08:43.524Z,100672.00
2019-02-19T19:11:11.885Z,100672.02
2019-02-19T19:13:40.321Z,100678.79
2019-02-19T19:16:08.754Z,100675.81
2019-02-19T19:18:37.179Z,100674.11
2019-02-19T19:21:07.834Z,100677.51
2019-02-19T19:23:35.763Z,100679.62
2019-02-19T19:26:04.803Z,100678.34
2019-02-19T19:28:33.221Z,100684.28
2019-02-19T19:31:01.659Z,100686.42
2019-02-19T19:33:30.597Z,100684.31
2019-02-19T19:35:58.961Z,100690.23
2019-02-19T19:38:27.359Z,100691.94
2019-02-19T19:40:55.810Z,100683.05
2019-02-19T19:43:24.232Z,100693.63
2019-02-19T19:45:52.684Z,100698.31
2019-02-19T19:48:21.590Z,100694.88
2019-02-19T19:50:49.994Z,100696.17
2019-02-19T19:53:18.448Z,100698.29
2019-02-19T19:55:46.900Z,100701.66
2019-02-19T19:58:15.320Z,100696.56
2019-02-19T20:00:43.767Z,100699.09
2019-02-19T20:03:12.171Z,100701.21
2019-02-19T20:05:40.678Z,100703.32
2019-02-19T20:08:09.115Z,100700.33
2019-02-19T20:10:37.525Z,100704.56
2019-02-19T20:13:05.978Z,100707.08
2019-02-19T20:15:34.385Z,100701.56
2019-02-19T20:18:02.821Z,100707.92
2019-02-19T20:20:31.273Z,100708.74
2019-02-19T20:22:59.760Z,100707.06
2019-02-19T20:25:28.204Z,100706.25
2019-02-19T20:27:56.650Z,100711.28
2019-02-19T20:30:25.096Z,100703.25
2019-02-19T20:32:53.540Z,100699.84
2019-02-19T20:35:21.999Z,100708.33
2019-02-19T20:37:53.993Z,100704.93
2019-02-19T20:40:20.678Z,100707.88
2019-02-19T20:42:49.104Z,100718.05
2019-02-19T20:45:17.588Z,100713.45
2019-02-19T20:47:46.041Z,100721.89
2019-02-19T20:50:14.845Z,100719.39
2019-02-19T20:52:43.309Z,100716.44
2019-02-19T20:55:12.303Z,100717.69
2019-02-19T20:57:40.666Z,100720.25
2019-02-19T21:00:17.698Z,100718.98
2019-02-19T21:02:46.148Z,100709.69
2019-02-19T21:05:14.653Z,100705.47
2019-02-19T21:07:43.102Z,100709.69
2019-02-19T21:10:17.039Z,100710.16
2019-02-19T21:12:45.475Z,100714.42
2019-02-19T21:15:14.107Z,100721.19
2019-02-19T21:17:42.566Z,100718.64
2019-02-19T21:20:12.136Z,100722.91
2019-02-19T21:22:40.625Z,100721.22
2019-02-19T21:25:10.822Z,100723.31
2019-02-19T21:27:39.294Z,100731.39
2019-02-19T21:30:15.642Z,100736.92
2019-02-19T21:32:44.194Z,100739.88
2019-02-19T21:35:12.619Z,100741.58
2019-02-19T21:37:41.070Z,100744.10
2019-02-19T21:40:14.306Z,100742.41
2019-02-19T21:42:42.780Z,100745.81
2019-02-19T21:45:13.628Z,100742.00
2019-02-19T21:47:42.063Z,100747.52
2019-02-19T21:50:12.651Z,100739.87
2019-02-19T21:52:41.191Z,100740.30
2019-02-19T21:55:11.241Z,100741.55
2019-02-19T21:57:40.029Z,100735.22
2019-02-19T22:00:20.572Z,100739.86
2019-02-19T22:02:48.986Z,100743.26
2019-02-19T22:05:18.665Z,100743.26
2019-02-19T22:07:47.065Z,100739.83
2019-02-19T22:10:15.838Z,100738.98
2019-02-19T22:12:44.304Z,100738.99
2019-02-19T22:15:14.278Z,100742.78
2019-02-19T22:17:42.775Z,100744.48
2019-02-19T22:20:29.395Z,100750.44
2019-02-19T22:22:57.802Z,100746.63
2019-02-19T22:25:26.248Z,100745.77
2019-02-19T22:27:54.775Z,100738.13
2019-02-19T22:30:23.219Z,100740.67
2019-02-19T22:32:51.672Z,100736.42
2019-02-19T22:35:20.093Z,100743.19
2019-02-19T22:37:48.527Z,100750.80
2019-02-19T22:40:16.953Z,100749.10
2019-02-19T22:42:45.370Z,100760.13
2019-02-19T22:45:13.969Z,100759.72
2019-02-19T22:47:42.408Z,100757.20
2019-02-19T22:50:10.977Z,100755.09
2019-02-19T22:52:39.455Z,100756.81
2019-02-19T22:55:15.627Z,100757.66
2019-02-19T22:57:44.183Z,100758.08
2019-02-19T23:00:36.272Z,100757.27
2019-02-19T23:03:05.110Z,100754.27
2019-02-19T23:05:34.708Z,100761.08
2019-02-19T23:08:03.250Z,100758.52
2019-02-19T23:10:31.657Z,100758.53
2019-02-19T23:13:00.108Z,100762.34
2019-02-19T23:15:28.532Z,100763.63
2019-02-19T23:17:56.988Z,100768.27
2019-02-19T23:20:25.463Z,100761.08
2019-02-19T23:22:53.875Z,100763.17
2019-02-19T23:25:22.346Z,100763.16
2019-02-19T23:27:50.779Z,100761.48
2019-02-19T23:30:19.334Z,100772.08
2019-02-19T23:32:47.798Z,100778.85
2019-02-19T23:35:17.877Z,100772.92
2019-02-19T23:37:46.310Z,100774.61
2019-02-19T23:40:14.751Z,100784.37
2019-02-19T23:42:43.207Z,100779.30
2019-02-19T23:45:11.756Z,100784.37
2019-02-19T23:47:40.221Z,100785.64
2019-02-19T23:50:09.497Z,100784.38
2019-02-19T23:52:37.958Z,100787.78
2019-02-19T23:55:08.117Z,100792.43
2019-02-19T23:57:36.559Z,100784.39
